Main page
METAR-TAF:

METAR-TAF

Airports :

Sumburgh Airport

Sumburgh, Shetland, Scotland

latitude: 59-53N, longitude: 001-18W, elevation: 5 m

Current weather observation

The report was made 19 minutes ago, at 13:20 UTC
Wind 11 kt from the South
Temperature 9°C
Humidity 93%
Pressure 1027 hPa
Visibility: 6000 m
Scattered clouds at a height of 500 ft
Broken clouds at a height of 600 ft

METAR: EGPB 241320Z 17011KT 6000 SCT005 BKN006 09/08 Q1027 TEMPO BKN004

Time: 14:39 (13:39 UTC)

Forecast

The report was made 2 hours and 36 minutes ago, at 11:03 UTC
Forecast valid from 24 at 12 UTC to 24 at 21 UTC
Wind 14 kt from the South
Visibility 10 km or more
Broken clouds at a height of 500 ft
Temporary
from 24 at 12 UTC to 24 at 19 UTC
Visibility: 4000 m
Broken clouds at a height of 400 ft
mist
Temporary
from 24 at 19 UTC to 24 at 21 UTC
Visibility: 0600 m
Broken clouds at a height of 100 ft
fog

TAF: EGPB 241103Z 2412/2421 17014KT 9999 BKN005 TEMPO 2412/2419 4000 BR BKN004 TEMPO 2419/2421 0600 FG BKN001

Weather observations and forecasts of more than 4000 airports (METAR and TAF reports).

The available stations are represented by yellow and red dots on the map.

Hover mouse over dot to see the name of the station.

Then click to see weather observations and forecasts.

To change the map : click on the green buttons with a black cross to zoom in, on the green button with a dash to zoom out, or on the green arrows for adjacent maps.


METAR-TAF: